sensor_id;sensor_type;location;lat;lon;timestamp;pressure;altitude;pressure_sealevel;temperature;humidity
32330;BME280;18807;52.434;13.238;2022-12-20T00:04:43;101468.19;;;3.32;100.00
32330;BME280;18807;52.434;13.238;2022-12-20T00:12:17;101448.91;;;3.33;100.00
32330;BME280;18807;52.434;13.238;2022-12-20T00:19:52;101455.00;;;3.32;100.00
32330;BME280;18807;52.434;13.238;2022-12-20T00:27:26;101453.34;;;3.34;100.00
32330;BME280;18807;52.434;13.238;2022-12-20T00:35:01;101427.72;;;3.32;100.00
32330;BME280;18807;52.434;13.238;2022-12-20T00:42:35;101444.13;;;3.42;100.00
32330;BME280;18807;52.434;13.238;2022-12-20T00:50:11;101441.31;;;3.39;100.00
32330;BME280;18807;52.434;13.238;2022-12-20T00:57:45;101428.75;;;3.35;100.00
32330;BME280;18807;52.434;13.238;2022-12-20T01:05:20;101427.38;;;3.42;100.00
32330;BME280;18807;52.434;13.238;2022-12-20T01:12:54;101423.91;;;3.43;100.00
32330;BME280;18807;52.434;13.238;2022-12-20T01:20:30;101433.56;;;3.42;100.00
32330;BME280;18807;52.434;13.238;2022-12-20T01:28:03;101429.34;;;3.46;100.00
32330;BME280;18807;52.434;13.238;2022-12-20T01:35:38;101431.91;;;3.44;100.00
32330;BME280;18807;52.434;13.238;2022-12-20T01:43:13;101418.78;;;3.46;100.00
32330;BME280;18807;52.434;13.238;2022-12-20T01:50:50;101416.72;;;3.40;100.00
32330;BME280;18807;52.434;13.238;2022-12-20T01:58:24;101418.69;;;3.44;100.00
32330;BME280;18807;52.434;13.238;2022-12-20T02:06:13;101397.66;;;3.46;100.00
32330;BME280;18807;52.434;13.238;2022-12-20T02:13:53;101412.63;;;3.45;100.00
32330;BME280;18807;52.434;13.238;2022-12-20T02:21:38;101409.06;;;3.45;100.00
32330;BME280;18807;52.434;13.238;2022-12-20T02:29:20;101400.22;;;3.44;100.00
32330;BME280;18807;52.434;13.238;2022-12-20T02:36:58;101403.19;;;3.50;100.00
32330;BME280;18807;52.434;13.238;2022-12-20T02:44:34;101379.66;;;3.55;100.00
32330;BME280;18807;52.434;13.238;2022-12-20T02:52:29;101373.66;;;3.57;100.00
32330;BME280;18807;52.434;13.238;2022-12-20T03:00:06;101353.97;;;3.68;100.00
32330;BME280;18807;52.434;13.238;2022-12-20T03:07:42;101336.78;;;3.76;100.00
32330;BME280;18807;52.434;13.238;2022-12-20T03:15:16;101356.00;;;3.74;100.00
32330;BME280;18807;52.434;13.238;2022-12-20T03:22:52;101351.88;;;3.79;100.00
32330;BME280;18807;52.434;13.238;2022-12-20T03:30:26;101348.41;;;3.80;100.00
32330;BME280;18807;52.434;13.238;2022-12-20T03:38:01;101368.88;;;3.84;100.00
32330;BME280;18807;52.434;13.238;2022-12-20T03:45:35;101376.03;;;3.86;100.00
32330;BME280;18807;52.434;13.238;2022-12-20T03:53:11;101346.44;;;3.93;100.00
32330;BME280;18807;52.434;13.238;2022-12-20T04:00:44;101353.50;;;3.93;100.00
32330;BME280;18807;52.434;13.238;2022-12-20T04:08:20;101365.03;;;3.95;100.00
32330;BME280;18807;52.434;13.238;2022-12-20T04:15:54;101355.47;;;3.97;100.00
32330;BME280;18807;52.434;13.238;2022-12-20T04:23:35;101338.84;;;3.99;100.00
32330;BME280;18807;52.434;13.238;2022-12-20T04:31:09;101352.72;;;3.95;100.00
32330;BME280;18807;52.434;13.238;2022-12-20T04:38:50;101352.88;;;3.98;100.00
32330;BME280;18807;52.434;13.238;2022-12-20T04:46:24;101325.94;;;3.88;100.00
32330;BME280;18807;52.434;13.238;2022-12-20T04:54:01;101332.47;;;3.78;100.00
32330;BME280;18807;52.434;13.238;2022-12-20T05:01:34;101338.44;;;3.74;100.00
32330;BME280;18807;52.434;13.238;2022-12-20T05:09:10;101339.03;;;3.69;100.00
32330;BME280;18807;52.434;13.238;2022-12-20T05:16:44;101344.25;;;3.67;100.00
32330;BME280;18807;52.434;13.238;2022-12-20T05:24:19;101321.34;;;3.68;100.00
32330;BME280;18807;52.434;13.238;2022-12-20T05:32:10;101309.53;;;3.77;100.00
32330;BME280;18807;52.434;13.238;2022-12-20T05:39:45;101316.84;;;3.83;100.00
32330;BME280;18807;52.434;13.238;2022-12-20T05:47:19;101303.22;;;3.91;100.00
32330;BME280;18807;52.434;13.238;2022-12-20T05:54:55;101304.31;;;3.96;100.00
32330;BME280;18807;52.434;13.238;2022-12-20T06:02:29;101295.94;;;4.05;100.00
32330;BME280;18807;52.434;13.238;2022-12-20T06:10:06;101314.53;;;4.24;100.00
32330;BME280;18807;52.434;13.238;2022-12-20T06:17:41;101325.13;;;4.24;100.00
32330;BME280;18807;52.434;13.238;2022-12-20T06:25:16;101336.41;;;4.22;100.00
32330;BME280;18807;52.434;13.238;2022-12-20T06:32:50;101322.41;;;4.23;100.00
32330;BME280;18807;52.434;13.238;2022-12-20T06:40:25;101313.84;;;4.28;100.00
32330;BME280;18807;52.434;13.238;2022-12-20T06:47:59;101325.41;;;4.30;100.00
32330;BME280;18807;52.434;13.238;2022-12-20T06:55:35;101335.16;;;4.31;100.00
32330;BME280;18807;52.434;13.238;2022-12-20T07:03:09;101323.31;;;4.42;100.00
32330;BME280;18807;52.434;13.238;2022-12-20T07:10:44;101332.88;;;4.39;100.00
32330;BME280;18807;52.434;13.238;2022-12-20T07:18:18;101342.22;;;4.50;100.00
32330;BME280;18807;52.434;13.238;2022-12-20T07:25:55;101356.22;;;4.47;100.00
32330;BME280;18807;52.434;13.238;2022-12-20T07:33:31;101352.56;;;4.63;100.00
32330;BME280;18807;52.434;13.238;2022-12-20T07:41:08;101353.69;;;4.68;100.00
32330;BME280;18807;52.434;13.238;2022-12-20T07:48:42;101364.97;;;4.64;100.00
32330;BME280;18807;52.434;13.238;2022-12-20T07:56:20;101361.75;;;4.71;100.00
32330;BME280;18807;52.434;13.238;2022-12-20T08:03:57;101356.69;;;4.75;100.00
32330;BME280;18807;52.434;13.238;2022-12-20T08:11:35;101366.50;;;4.78;100.00
32330;BME280;18807;52.434;13.238;2022-12-20T08:19:09;101364.28;;;4.87;100.00
32330;BME280;18807;52.434;13.238;2022-12-20T08:26:48;101356.28;;;4.85;100.00
32330;BME280;18807;52.434;13.238;2022-12-20T08:34:22;101334.16;;;4.83;100.00
32330;BME280;18807;52.434;13.238;2022-12-20T08:41:57;101328.31;;;4.90;100.00
32330;BME280;18807;52.434;13.238;2022-12-20T08:49:31;101343.69;;;4.99;100.00
32330;BME280;18807;52.434;13.238;2022-12-20T08:57:07;101339.47;;;5.02;100.00
32330;BME280;18807;52.434;13.238;2022-12-20T09:04:41;101333.47;;;5.06;100.00
32330;BME280;18807;52.434;13.238;2022-12-20T09:12:17;101335.59;;;5.15;100.00
32330;BME280;18807;52.434;13.238;2022-12-20T09:19:51;101318.97;;;5.17;100.00
32330;BME280;18807;52.434;13.238;2022-12-20T09:27:28;101321.19;;;5.27;100.00
32330;BME280;18807;52.434;13.238;2022-12-20T09:35:02;101323.00;;;5.47;100.00
32330;BME280;18807;52.434;13.238;2022-12-20T09:42:37;101317.00;;;5.51;100.00
32330;BME280;18807;52.434;13.238;2022-12-20T09:50:13;101309.66;;;5.65;100.00
32330;BME280;18807;52.434;13.238;2022-12-20T09:58:00;101319.84;;;5.76;100.00
32330;BME280;18807;52.434;13.238;2022-12-20T10:05:40;101304.03;;;5.78;100.00
32330;BME280;18807;52.434;13.238;2022-12-20T10:21:20;101315.25;;;5.91;100.00
32330;BME280;18807;52.434;13.238;2022-12-20T10:29:01;101292.91;;;6.07;100.00
32330;BME280;18807;52.434;13.238;2022-12-20T10:36:36;101274.78;;;6.18;100.00
32330;BME280;18807;52.434;13.238;2022-12-20T10:44:18;101255.53;;;6.22;100.00
32330;BME280;18807;52.434;13.238;2022-12-20T10:51:54;101250.78;;;6.37;100.00
32330;BME280;18807;52.434;13.238;2022-12-20T10:59:32;101227.03;;;6.40;100.00
32330;BME280;18807;52.434;13.238;2022-12-20T11:07:23;101220.19;;;6.45;100.00
32330;BME280;18807;52.434;13.238;2022-12-20T11:15:10;101192.19;;;6.53;100.00
32330;BME280;18807;52.434;13.238;2022-12-20T11:22:51;101187.13;;;6.59;100.00
32330;BME280;18807;52.434;13.238;2022-12-20T11:30:34;101181.34;;;6.70;100.00
32330;BME280;18807;52.434;13.238;2022-12-20T11:38:20;101166.25;;;6.93;100.00
32330;BME280;18807;52.434;13.238;2022-12-20T11:46:15;101159.97;;;6.91;100.00
32330;BME280;18807;52.434;13.238;2022-12-20T11:53:56;101163.56;;;6.91;100.00
32330;BME280;18807;52.434;13.238;2022-12-20T12:01:39;101162.00;;;6.98;100.00
32330;BME280;18807;52.434;13.238;2022-12-20T12:09:19;101157.00;;;7.07;100.00
32330;BME280;18807;52.434;13.238;2022-12-20T12:17:05;101137.66;;;7.11;100.00
32330;BME280;18807;52.434;13.238;2022-12-20T12:24:42;101143.13;;;7.15;100.00
32330;BME280;18807;52.434;13.238;2022-12-20T12:32:26;101138.97;;;7.22;100.00
32330;BME280;18807;52.434;13.238;2022-12-20T12:40:13;101111.41;;;7.20;100.00
32330;BME280;18807;52.434;13.238;2022-12-20T12:47:55;101111.00;;;7.33;100.00
32330;BME280;18807;52.434;13.238;2022-12-20T12:55:37;101086.47;;;7.41;100.00
32330;BME280;18807;52.434;13.238;2022-12-20T13:03:15;101087.25;;;7.39;100.00
32330;BME280;18807;52.434;13.238;2022-12-20T13:10:59;101095.59;;;7.23;100.00
32330;BME280;18807;52.434;13.238;2022-12-20T13:18:35;101088.31;;;7.17;100.00
32330;BME280;18807;52.434;13.238;2022-12-20T13:26:42;101091.78;;;7.15;100.00
32330;BME280;18807;52.434;13.238;2022-12-20T13:34:38;101102.41;;;7.15;100.00
32330;BME280;18807;52.434;13.238;2022-12-20T13:42:19;101088.13;;;7.11;100.00
32330;BME280;18807;52.434;13.238;2022-12-20T13:50:16;101090.47;;;7.02;100.00
32330;BME280;18807;52.434;13.238;2022-12-20T13:57:53;101100.31;;;7.06;100.00
32330;BME280;18807;52.434;13.238;2022-12-20T14:05:33;101084.06;;;6.96;100.00
32330;BME280;18807;52.434;13.238;2022-12-20T14:13:19;101078.00;;;7.00;100.00
32330;BME280;18807;52.434;13.238;2022-12-20T14:20:58;101071.44;;;6.90;100.00
32330;BME280;18807;52.434;13.238;2022-12-20T14:28:35;101067.59;;;6.81;100.00
32330;BME280;18807;52.434;13.238;2022-12-20T14:36:18;101058.63;;;6.77;100.00
32330;BME280;18807;52.434;13.238;2022-12-20T14:43:54;101069.19;;;6.76;100.00
32330;BME280;18807;52.434;13.238;2022-12-20T14:51:30;101042.53;;;6.73;100.00
32330;BME280;18807;52.434;13.238;2022-12-20T14:59:24;101061.53;;;6.60;100.00
32330;BME280;18807;52.434;13.238;2022-12-20T15:07:01;101042.69;;;6.52;100.00
32330;BME280;18807;52.434;13.238;2022-12-20T15:14:36;101047.72;;;6.45;100.00
32330;BME280;18807;52.434;13.238;2022-12-20T15:22:16;101036.13;;;6.43;100.00
32330;BME280;18807;52.434;13.238;2022-12-20T15:29:51;101023.41;;;6.33;100.00
32330;BME280;18807;52.434;13.238;2022-12-20T15:37:28;101020.53;;;6.27;100.00
32330;BME280;18807;52.434;13.238;2022-12-20T15:45:02;101013.03;;;6.15;100.00
32330;BME280;18807;52.434;13.238;2022-12-20T15:52:37;100994.25;;;6.09;100.00
32330;BME280;18807;52.434;13.238;2022-12-20T16:00:12;101002.09;;;6.06;100.00
32330;BME280;18807;52.434;13.238;2022-12-20T16:07:48;101003.59;;;5.99;100.00
32330;BME280;18807;52.434;13.238;2022-12-20T16:15:22;100986.66;;;5.94;100.00
32330;BME280;18807;52.434;13.238;2022-12-20T16:22:59;100981.19;;;5.90;100.00
32330;BME280;18807;52.434;13.238;2022-12-20T16:30:33;100968.03;;;5.93;100.00
32330;BME280;18807;52.434;13.238;2022-12-20T16:38:09;100984.88;;;5.95;100.00
32330;BME280;18807;52.434;13.238;2022-12-20T16:45:43;100967.94;;;5.90;100.00
32330;BME280;18807;52.434;13.238;2022-12-20T16:53:18;100981.00;;;5.85;100.00
32330;BME280;18807;52.434;13.238;2022-12-20T17:00:52;100973.47;;;5.74;100.00
32330;BME280;18807;52.434;13.238;2022-12-20T17:08:28;100965.47;;;5.72;100.00
32330;BME280;18807;52.434;13.238;2022-12-20T17:16:19;100953.31;;;5.79;100.00
32330;BME280;18807;52.434;13.238;2022-12-20T17:23:58;100952.50;;;5.80;100.00
32330;BME280;18807;52.434;13.238;2022-12-20T17:31:34;100956.41;;;5.89;100.00
32330;BME280;18807;52.434;13.238;2022-12-20T17:39:13;100976.97;;;5.96;100.00
32330;BME280;18807;52.434;13.238;2022-12-20T17:46:47;100973.97;;;6.09;100.00
32330;BME280;18807;52.434;13.238;2022-12-20T17:54:23;100956.38;;;6.13;100.00
32330;BME280;18807;52.434;13.238;2022-12-20T18:01:58;100954.66;;;6.13;100.00
32330;BME280;18807;52.434;13.238;2022-12-20T18:09:34;100945.94;;;6.18;100.00
32330;BME280;18807;52.434;13.238;2022-12-20T18:17:08;100953.91;;;6.18;100.00
32330;BME280;18807;52.434;13.238;2022-12-20T18:24:43;100963.41;;;6.11;100.00
32330;BME280;18807;52.434;13.238;2022-12-20T18:32:17;100948.31;;;6.10;100.00
32330;BME280;18807;52.434;13.238;2022-12-20T18:39:53;100964.13;;;6.07;100.00
32330;BME280;18807;52.434;13.238;2022-12-20T18:47:27;100965.66;;;6.00;100.00
32330;BME280;18807;52.434;13.238;2022-12-20T18:55:03;100950.59;;;5.99;100.00
32330;BME280;18807;52.434;13.238;2022-12-20T19:02:37;100937.66;;;6.08;100.00
32330;BME280;18807;52.434;13.238;2022-12-20T19:10:13;100949.59;;;5.96;100.00
32330;BME280;18807;52.434;13.238;2022-12-20T19:17:47;100944.13;;;5.91;100.00
32330;BME280;18807;52.434;13.238;2022-12-20T19:25:24;100930.81;;;5.90;100.00
32330;BME280;18807;52.434;13.238;2022-12-20T19:32:58;100944.50;;;5.78;100.00
32330;BME280;18807;52.434;13.238;2022-12-20T19:40:33;100947.69;;;5.70;100.00
32330;BME280;18807;52.434;13.238;2022-12-20T19:48:07;100944.88;;;5.65;100.00
32330;BME280;18807;52.434;13.238;2022-12-20T19:55:50;100929.59;;;5.58;100.00
32330;BME280;18807;52.434;13.238;2022-12-20T20:03:25;100930.22;;;5.51;100.00
32330;BME280;18807;52.434;13.238;2022-12-20T20:11:01;100931.03;;;5.49;100.00
32330;BME280;18807;52.434;13.238;2022-12-20T20:18:41;100934.50;;;5.48;100.00
32330;BME280;18807;52.434;13.238;2022-12-20T20:26:20;100938.84;;;5.46;100.00
32330;BME280;18807;52.434;13.238;2022-12-20T20:33:56;100923.72;;;5.43;100.00
32330;BME280;18807;52.434;13.238;2022-12-20T20:41:31;100923.53;;;5.39;100.00
32330;BME280;18807;52.434;13.238;2022-12-20T20:49:07;100920.13;;;5.41;100.00
32330;BME280;18807;52.434;13.238;2022-12-20T20:56:42;100911.03;;;5.35;100.00
32330;BME280;18807;52.434;13.238;2022-12-20T21:04:16;100912.59;;;5.30;100.00
32330;BME280;18807;52.434;13.238;2022-12-20T21:11:51;100909.19;;;5.32;100.00
32330;BME280;18807;52.434;13.238;2022-12-20T21:19:25;100913.81;;;5.38;100.00
32330;BME280;18807;52.434;13.238;2022-12-20T21:27:01;100897.63;;;5.30;100.00
32330;BME280;18807;52.434;13.238;2022-12-20T21:34:35;100894.00;;;5.28;100.00
32330;BME280;18807;52.434;13.238;2022-12-20T21:42:10;100907.38;;;5.31;100.00
32330;BME280;18807;52.434;13.238;2022-12-20T21:49:44;100899.25;;;5.27;100.00
32330;BME280;18807;52.434;13.238;2022-12-20T21:57:19;100883.19;;;5.22;100.00
32330;BME280;18807;52.434;13.238;2022-12-20T22:04:53;100886.75;;;5.23;100.00
32330;BME280;18807;52.434;13.238;2022-12-20T22:12:28;100887.53;;;5.20;100.00
32330;BME280;18807;52.434;13.238;2022-12-20T22:20:04;100876.88;;;5.19;100.00
32330;BME280;18807;52.434;13.238;2022-12-20T22:27:41;100878.69;;;5.20;100.00
32330;BME280;18807;52.434;13.238;2022-12-20T22:35:15;100868.03;;;5.18;100.00
32330;BME280;18807;52.434;13.238;2022-12-20T22:42:55;100870.81;;;5.21;100.00
32330;BME280;18807;52.434;13.238;2022-12-20T22:50:29;100852.38;;;5.24;100.00
32330;BME280;18807;52.434;13.238;2022-12-20T22:58:04;100861.19;;;5.23;100.00
32330;BME280;18807;52.434;13.238;2022-12-20T23:05:38;100872.75;;;5.27;100.00
32330;BME280;18807;52.434;13.238;2022-12-20T23:13:13;100868.44;;;5.29;100.00
32330;BME280;18807;52.434;13.238;2022-12-20T23:21:05;100867.66;;;5.31;100.00
32330;BME280;18807;52.434;13.238;2022-12-20T23:28:58;100856.81;;;5.25;100.00
32330;BME280;18807;52.434;13.238;2022-12-20T23:36:32;100852.38;;;5.24;100.00
32330;BME280;18807;52.434;13.238;2022-12-20T23:44:08;100846.00;;;5.19;100.00
32330;BME280;18807;52.434;13.238;2022-12-20T23:51:42;100847.78;;;5.19;100.00
32330;BME280;18807;52.434;13.238;2022-12-20T23:59:17;100829.06;;;5.14;100.00
